Time;durP1;ratioP1;P1;durP2;ratioP2;P2;SDS_P1;SDS_P2;PMS_P1;PMS_P2;Temp;Humidity;BMP_temperature;BMP_pressure;BME280_temperature;BME280_humidity;BME280_pressure;Samples;Min_cycle;Max_cycle;Signal;HPM_P1;HPM_P2
2022/04/14 00:01:19;;;;;;;15.35;9.02;;;;;;;19.22;34.59;101327.50;4996068;28;97558;-68
2022/04/14 00:03:46;;;;;;;15.05;8.35;;;;;;;19.10;34.38;101325.56;5004960;28;98952;-69
2022/04/14 00:06:12;;;;;;;14.02;7.95;;;;;;;19.16;34.29;101332.38;4996782;28;99205;-69
2022/04/14 00:08:39;;;;;;;17.67;8.93;;;;;;;18.77;35.42;101330.31;4997769;28;98712;-69
2022/04/14 00:11:06;;;;;;;13.00;8.90;;;;;;;18.70;35.40;101330.69;4999566;28;96849;-68
2022/04/14 00:13:33;;;;;;;14.23;8.32;;;;;;;18.80;35.18;101330.97;4995873;28;99329;-69
2022/04/14 00:15:59;;;;;;;14.68;9.07;;;;;;;18.73;35.05;101326.94;5008343;28;101681;-68
2022/04/14 00:18:26;;;;;;;16.15;8.85;;;;;;;19.05;34.75;101325.84;5004066;28;97419;-69
2022/04/14 00:20:52;;;;;;;17.25;8.40;;;;;;;18.98;34.57;101315.59;5000384;28;97036;-69
2022/04/14 00:23:19;;;;;;;16.17;8.32;;;;;;;18.97;34.75;101324.63;4999484;28;99274;-68
2022/04/14 00:25:46;;;;;;;20.00;8.82;;;;;;;18.88;35.03;101320.69;5005315;28;98837;-70
2022/04/14 00:28:13;;;;;;;11.90;7.85;;;;;;;18.42;36.04;101327.91;5002488;28;96793;-69
2022/04/14 00:30:40;;;;;;;14.23;8.20;;;;;;;18.37;36.09;101327.31;5003230;28;96932;-70
2022/04/14 00:33:06;;;;;;;15.50;9.18;;;;;;;18.45;36.26;101322.34;4999788;28;99431;-70
2022/04/14 00:35:32;;;;;;;14.52;8.73;;;;;;;18.59;36.13;101324.25;5005625;28;99584;-69
2022/04/14 00:37:59;;;;;;;17.45;9.05;;;;;;;18.76;35.28;101333.94;5005685;28;97354;-67
2022/04/14 00:40:26;;;;;;;12.15;8.68;;;;;;;18.80;35.41;101327.44;5001955;28;96843;-69
2022/04/14 00:42:52;;;;;;;16.40;9.10;;;;;;;18.62;35.83;101324.94;5002302;28;98202;-69
2022/04/14 00:45:20;;;;;;;17.27;9.73;;;;;;;18.52;35.79;101326.38;5000039;28;98990;-69
2022/04/14 00:47:46;;;;;;;18.67;9.48;;;;;;;18.26;36.30;101330.59;4999559;28;96900;-69
2022/04/14 00:50:13;;;;;;;18.05;9.68;;;;;;;18.28;36.44;101328.69;5004041;28;96901;-68
2022/04/14 00:52:45;;;;;;;20.23;9.82;;;;;;;18.22;36.37;101330.88;5004042;28;103093;-70
2022/04/14 00:55:11;;;;;;;17.52;9.27;;;;;;;18.32;36.27;101340.06;5008669;28;99849;-69
2022/04/14 00:57:38;;;;;;;13.43;9.50;;;;;;;18.01;36.77;101337.44;5003876;28;96760;-70
2022/04/14 01:00:06;;;;;;;22.85;10.48;;;;;;;18.06;36.84;101330.00;5008818;28;96869;-69
2022/04/14 01:02:34;;;;;;;15.80;9.65;;;;;;;18.26;36.43;101327.91;5007569;28;98141;-69
2022/04/14 01:05:04;;;;;;;22.55;10.50;;;;;;;18.13;36.50;101329.56;5005016;28;99458;-69
2022/04/14 01:07:33;;;;;;;18.58;10.15;;;;;;;18.09;36.69;101333.38;5006644;28;96714;-69
2022/04/14 01:10:01;;;;;;;18.38;9.98;;;;;;;18.17;36.92;101331.16;5005663;28;97374;-69
2022/04/14 01:12:29;;;;;;;15.68;9.52;;;;;;;18.31;36.73;101333.03;5001562;28;98968;-68
2022/04/14 01:14:55;;;;;;;19.33;10.23;;;;;;;18.38;36.47;101334.34;5007380;28;98827;-69
2022/04/14 01:17:22;;;;;;;19.38;9.57;;;;;;;18.32;36.72;101337.38;5003674;28;97659;-70
2022/04/14 01:19:49;;;;;;;25.65;10.05;;;;;;;18.41;36.76;101338.69;5003346;28;96823;-69
2022/04/14 01:22:23;;;;;;;17.95;9.82;;;;;;;18.28;36.58;101327.84;5005072;28;97823;-69
2022/04/14 01:24:52;;;;;;;15.45;8.57;;;;;;;18.51;36.02;101334.53;4998862;28;98257;-69
2022/04/14 01:27:18;;;;;;;15.60;9.43;;;;;;;18.48;36.19;101330.19;4997601;28;96758;-69
2022/04/14 01:29:46;;;;;;;16.20;8.73;;;;;;;18.57;36.13;101334.19;4999886;28;98011;-70
2022/04/14 01:32:13;;;;;;;16.50;8.98;;;;;;;18.26;36.71;101327.91;4998894;28;98619;-70
2022/04/14 01:34:39;;;;;;;16.92;8.98;;;;;;;18.09;37.11;101335.19;5005747;28;99126;-69
2022/04/14 01:37:05;;;;;;;22.35;9.98;;;;;;;18.12;37.04;101341.22;5008236;28;96696;-69
2022/04/14 01:39:32;;;;;;;20.45;8.95;;;;;;;18.14;36.85;101341.13;4998451;28;96846;-69
2022/04/14 01:41:59;;;;;;;16.65;8.65;;;;;;;18.42;36.55;101337.72;5003584;28;98884;-70
2022/04/14 01:44:26;;;;;;;18.15;9.48;;;;;;;18.01;37.10;101340.97;4993979;28;98455;-69
2022/04/14 01:46:52;;;;;;;20.27;9.70;;;;;;;18.11;36.99;101335.97;5005974;28;96771;-70
2022/04/14 01:49:19;;;;;;;18.70;9.32;;;;;;;18.08;37.03;101345.03;4998612;28;96880;-69
2022/04/14 01:51:48;;;;;;;17.92;8.57;;;;;;;17.91;36.59;101347.81;5001744;28;99756;-69
2022/04/14 01:54:15;;;;;;;20.17;9.13;;;;;;;18.13;36.53;101342.94;5002284;28;98990;-69
2022/04/14 01:56:41;;;;;;;13.00;8.65;;;;;;;18.05;37.01;101339.00;5003521;28;96866;-68
2022/04/14 01:59:09;;;;;;;16.50;8.98;;;;;;;18.38;36.73;101344.22;5002222;28;96849;-69
2022/04/14 02:01:36;;;;;;;18.55;8.75;;;;;;;18.00;37.83;101347.28;4997768;28;99058;-69
2022/04/14 02:04:03;;;;;;;18.77;9.68;;;;;;;17.97;37.72;101349.28;4999381;28;98908;-69
2022/04/14 02:06:30;;;;;;;26.35;14.10;;;;;;;18.00;37.21;101352.63;4998240;28;97029;-69
2022/04/14 02:08:56;;;;;;;20.10;9.52;;;;;;;17.90;37.32;101344.28;4995665;28;96852;-69
2022/04/14 02:11:23;;;;;;;16.25;8.95;;;;;;;17.95;37.08;101354.69;5002237;28;99760;-69
2022/04/14 02:13:49;;;;;;;15.02;9.35;;;;;;;17.74;37.71;101346.06;5001542;28;101053;-69
2022/04/14 02:16:17;;;;;;;20.42;9.63;;;;;;;17.71;37.66;101353.41;5004263;28;96797;-69
2022/04/14 02:18:43;;;;;;;16.55;8.40;;;;;;;18.12;36.99;101349.25;4996736;28;97249;-70
2022/04/14 02:21:10;;;;;;;17.48;9.40;;;;;;;18.07;37.04;101345.13;4998771;28;99435;-67
2022/04/14 02:23:36;;;;;;;16.60;8.77;;;;;;;17.87;37.36;101347.09;4997680;28;99203;-68
2022/04/14 02:26:03;;;;;;;16.95;8.95;;;;;;;18.13;36.90;101355.47;5000009;28;96985;-69
2022/04/14 02:28:29;;;;;;;14.35;8.70;;;;;;;18.00;37.38;101362.44;4999988;28;96973;-70
2022/04/14 02:30:56;;;;;;;14.52;9.40;;;;;;;17.96;37.56;101366.25;5002710;28;98886;-69
2022/04/14 02:33:23;;;;;;;15.05;9.45;;;;;;;17.75;38.06;101357.63;5002652;28;98731;-71
2022/04/14 02:35:50;;;;;;;16.45;9.60;;;;;;;18.06;37.68;101362.97;5005626;28;96775;-71
2022/04/14 02:38:16;;;;;;;18.08;8.95;;;;;;;17.72;38.41;101371.19;4991910;28;96783;-69
2022/04/14 02:40:43;;;;;;;22.67;10.18;;;;;;;18.07;37.83;101369.19;5003949;28;98938;-70
2022/04/14 02:43:09;;;;;;;18.35;9.38;;;;;;;18.10;37.94;101371.69;4997119;28;98820;-68
2022/04/14 02:45:36;;;;;;;14.32;8.75;;;;;;;17.76;38.96;101378.94;5000245;28;96698;-68
2022/04/14 02:48:02;;;;;;;17.98;9.80;;;;;;;17.82;38.12;101377.72;4997658;28;96972;-69
2022/04/14 02:50:30;;;;;;;17.40;9.23;;;;;;;17.43;39.98;101397.63;5001893;28;99248;-69
2022/04/14 02:52:56;;;;;;;20.73;10.00;;;;;;;17.74;38.62;101391.50;4995754;28;99225;-69
2022/04/14 02:55:23;;;;;;;16.23;10.00;;;;;;;17.48;38.90;101384.88;5004814;28;98667;-68
2022/04/14 02:57:50;;;;;;;20.60;10.63;;;;;;;17.31;38.96;101389.41;4998108;28;96758;-69
2022/04/14 03:00:17;;;;;;;22.17;11.07;;;;;;;16.94;39.88;101385.97;4999607;28;99063;-69
2022/04/14 03:02:44;;;;;;;22.08;11.35;;;;;;;16.80;40.30;101391.19;4998489;28;98822;-69
2022/04/14 03:05:11;;;;;;;24.02;11.48;;;;;;;16.55;40.92;101393.31;5003565;28;96924;-70
2022/04/14 03:07:39;;;;;;;21.48;11.60;;;;;;;16.76;40.56;101402.94;5000259;28;96943;-68
2022/04/14 03:10:07;;;;;;;25.40;11.70;;;;;;;16.96;40.11;101407.25;5000878;28;99054;-70
2022/04/14 03:12:41;;;;;;;23.02;11.45;;;;;;;16.50;41.14;101416.69;4998822;28;101391;-69
2022/04/14 03:15:08;;;;;;;18.15;10.98;;;;;;;16.32;41.43;101422.00;4997481;28;96841;-70
2022/04/14 03:17:35;;;;;;;21.40;11.48;;;;;;;16.07;42.20;101418.78;5007159;28;97034;-69
2022/04/14 03:20:02;;;;;;;22.52;12.18;;;;;;;15.87;42.62;101409.06;4996397;28;99195;-69
2022/04/14 03:22:32;;;;;;;25.52;11.65;;;;;;;16.38;41.73;101409.31;5001253;28;99572;-70
2022/04/14 03:25:00;;;;;;;21.02;12.27;;;;;;;16.46;41.55;101409.78;4996082;28;96853;-70
2022/04/14 03:27:27;;;;;;;18.65;11.82;;;;;;;15.97;42.52;101417.47;4997833;28;96851;-70
2022/04/14 03:29:53;;;;;;;19.13;11.50;;;;;;;15.70;43.90;101421.44;4994486;28;97721;-68
2022/04/14 03:32:20;;;;;;;23.40;11.63;;;;;;;15.59;45.02;101427.25;4997133;28;99162;-68
2022/04/14 03:34:46;;;;;;;17.85;10.60;;;;;;;15.41;45.79;101423.59;5000008;28;96776;-68
2022/04/14 03:37:12;;;;;;;18.17;10.82;;;;;;;15.70;45.78;101424.09;4994711;28;96952;-70
2022/04/14 03:39:39;;;;;;;20.58;10.95;;;;;;;15.81;45.52;101409.38;4992454;28;98987;-69
2022/04/14 03:42:07;;;;;;;18.90;10.73;;;;;;;15.76;45.84;101415.81;5000831;28;98799;-69
2022/04/14 03:44:33;;;;;;;19.30;10.10;;;;;;;15.93;45.75;101413.25;4996488;28;96897;-70
2022/04/14 03:47:00;;;;;;;17.83;10.23;;;;;;;16.23;45.24;101417.09;4999279;28;96915;-70
2022/04/14 03:49:26;;;;;;;24.48;10.68;;;;;;;16.16;45.15;101429.00;4994734;28;98880;-68
2022/04/14 03:51:54;;;;;;;17.25;10.02;;;;;;;15.53;47.18;101425.75;5005041;28;98999;-70
2022/04/14 03:54:20;;;;;;;19.67;9.73;;;;;;;15.70;47.04;101422.28;4993653;28;96896;-69
2022/04/14 03:56:48;;;;;;;17.35;9.20;;;;;;;16.16;46.19;101412.13;5002678;28;96973;-68
2022/04/14 03:59:16;;;;;;;15.82;9.40;;;;;;;16.22;45.84;101410.03;4992978;28;99011;-69
2022/04/14 04:01:43;;;;;;;12.02;8.65;;;;;;;15.70;47.10;101414.31;5000732;28;98171;-68
2022/04/14 04:04:09;;;;;;;19.98;8.88;;;;;;;15.73;47.48;101413.31;5002330;28;97130;-69
2022/04/14 04:06:35;;;;;;;20.30;9.77;;;;;;;15.56;47.99;101419.38;5002239;28;96857;-69
2022/04/14 04:09:01;;;;;;;16.13;9.15;;;;;;;15.73;47.69;101421.31;4992865;28;98812;-69
2022/04/14 04:11:28;;;;;;;18.52;8.80;;;;;;;16.07;46.73;101417.94;4995587;28;98991;-69
2022/04/14 04:13:54;;;;;;;20.80;8.15;;;;;;;16.30;46.12;101429.22;4996042;28;96796;-69
2022/04/14 04:16:22;;;;;;;17.60;8.85;;;;;;;16.12;46.52;101426.56;4995719;28;97138;-69
2022/04/14 04:18:49;;;;;;;14.52;9.10;;;;;;;16.24;46.54;101441.97;5002901;28;99007;-69
2022/04/14 04:21:15;;;;;;;14.27;8.50;;;;;;;16.12;46.79;101446.09;4995759;28;98059;-69
2022/04/14 04:23:41;;;;;;;16.30;8.85;;;;;;;16.66;45.66;101450.59;4997930;28;99091;-69
2022/04/14 04:26:08;;;;;;;15.95;8.55;;;;;;;16.10;46.92;101450.63;4997294;28;96852;-71
2022/04/14 04:28:34;;;;;;;21.50;8.32;;;;;;;16.21;46.82;101455.47;4994021;28;99101;-68
2022/04/14 04:31:01;;;;;;;15.40;9.63;;;;;;;16.14;47.13;101454.91;5003692;28;98976;-70
2022/04/14 04:33:29;;;;;;;20.45;8.85;;;;;;;16.35;46.84;101467.19;4998882;28;96754;-69
2022/04/14 04:35:55;;;;;;;17.67;8.13;;;;;;;16.42;46.70;101465.06;4993084;28;96802;-70
2022/04/14 04:38:22;;;;;;;13.38;8.20;;;;;;;16.51;46.48;101463.78;5001727;28;99206;-71
2022/04/14 04:40:48;;;;;;;17.58;8.98;;;;;;;16.41;46.93;101470.50;4997087;28;98792;-69
2022/04/14 04:43:15;;;;;;;19.08;8.57;;;;;;;16.55;46.47;101468.88;4995646;28;96777;-68
2022/04/14 04:45:42;;;;;;;13.30;8.18;;;;;;;16.97;45.46;101475.75;4994362;28;96889;-69
2022/04/14 04:48:08;;;;;;;17.67;9.25;;;;;;;16.94;44.96;101473.22;4991467;28;97813;-69
2022/04/14 04:50:38;;;;;;;17.73;9.88;;;;;;;16.89;45.49;101481.47;4992904;28;97327;-69
2022/04/14 04:53:05;;;;;;;12.68;9.10;;;;;;;16.90;45.76;101474.31;4992408;28;98697;-69
2022/04/14 04:55:31;;;;;;;16.60;9.50;;;;;;;16.83;45.85;101465.75;4995377;28;97663;-69
2022/04/14 04:57:58;;;;;;;16.38;8.63;;;;;;;16.70;46.07;101461.97;4997313;28;99144;-69
2022/04/14 05:00:24;;;;;;;17.58;8.95;;;;;;;16.79;45.89;101453.50;4996782;28;98836;-68
2022/04/14 05:02:51;;;;;;;15.85;8.50;;;;;;;16.41;47.03;101460.69;4997753;28;97208;-68
2022/04/14 05:05:17;;;;;;;17.40;8.30;;;;;;;16.57;46.81;101461.69;5006505;28;96840;-68
2022/04/14 05:07:45;;;;;;;14.68;9.00;;;;;;;16.50;47.00;101459.38;4998528;28;101615;-69
2022/04/14 05:10:11;;;;;;;13.40;8.30;;;;;;;16.77;46.57;101455.38;5001308;28;100980;-69
2022/04/14 05:12:38;;;;;;;19.55;8.50;;;;;;;16.74;46.66;101450.19;4999264;28;96899;-68
2022/04/14 05:15:05;;;;;;;17.17;8.35;;;;;;;17.34;45.30;101450.66;4998612;28;96871;-69
2022/04/14 05:17:32;;;;;;;15.25;9.27;;;;;;;16.82;46.65;101450.69;4994914;28;98901;-68
2022/04/14 05:19:58;;;;;;;20.42;8.18;;;;;;;16.65;47.21;101456.88;5003475;28;99270;-70
2022/04/14 05:22:25;;;;;;;21.77;8.73;;;;;;;17.11;45.95;101460.75;4998023;28;98879;-70
2022/04/14 05:24:52;;;;;;;13.02;8.07;;;;;;;17.43;45.22;101453.72;4995362;28;96833;-69
2022/04/14 05:27:19;;;;;;;13.88;8.00;;;;;;;17.75;44.55;101461.88;5001699;28;99590;-69
2022/04/14 05:29:45;;;;;;;17.77;8.10;;;;;;;17.78;44.27;101453.69;5000777;28;97046;-69
2022/04/14 05:32:12;;;;;;;16.58;7.68;;;;;;;17.78;44.19;101456.38;4999772;28;96899;-69
2022/04/14 05:34:38;;;;;;;10.95;6.55;;;;;;;17.72;44.27;101451.38;4998431;28;97435;-69
2022/04/14 05:37:05;;;;;;;17.83;8.35;;;;;;;17.68;44.39;101455.13;5010164;28;98907;-69
2022/04/14 05:39:31;;;;;;;13.23;7.90;;;;;;;17.33;45.40;101467.63;4994625;28;99174;-70
2022/04/14 05:42:00;;;;;;;13.93;7.75;;;;;;;17.12;45.95;101467.81;4996295;28;96797;-70
2022/04/14 05:44:26;;;;;;;14.95;8.20;;;;;;;17.04;46.32;101469.16;4998717;28;98929;-70
2022/04/14 05:46:53;;;;;;;22.65;8.93;;;;;;;16.81;46.81;101470.28;5001013;28;97736;-68
2022/04/14 05:49:20;;;;;;;14.35;7.93;;;;;;;17.13;46.27;101471.38;4997946;28;99127;-69
2022/04/14 05:51:47;;;;;;;14.75;8.25;;;;;;;16.80;47.16;101467.72;4994864;28;98183;-69
2022/04/14 05:54:14;;;;;;;13.90;8.07;;;;;;;17.43;45.76;101468.91;5001287;28;96791;-69
2022/04/14 05:56:41;;;;;;;15.90;8.38;;;;;;;17.32;45.83;101469.47;5001350;28;98189;-69
2022/04/14 05:59:16;;;;;;;15.13;7.47;;;;;;;17.47;45.63;101471.31;5002639;28;98486;-69
2022/04/14 06:01:44;;;;;;;13.32;6.72;;;;;;;17.92;44.47;101465.34;4996832;28;96951;-69
2022/04/14 06:04:11;;;;;;;18.55;7.57;;;;;;;17.63;45.26;101471.41;4998037;28;97012;-70
2022/04/14 06:06:37;;;;;;;15.80;7.53;;;;;;;17.95;44.48;101474.16;4997325;28;98084;-71
2022/04/14 06:09:04;;;;;;;15.27;8.05;;;;;;;18.25;43.67;101472.44;5000604;28;99484;-69
2022/04/14 06:11:31;;;;;;;16.00;8.10;;;;;;;18.22;43.68;101473.50;4999593;28;97054;-69
2022/04/14 06:13:57;;;;;;;14.55;7.97;;;;;;;18.25;43.65;101476.00;4999173;28;98934;-70
2022/04/14 06:16:25;;;;;;;15.38;7.93;;;;;;;17.51;45.61;101480.06;5006294;28;99148;-69
2022/04/14 06:18:52;;;;;;;12.82;8.10;;;;;;;17.69;45.04;101467.53;5006621;28;101380;-68
2022/04/14 06:21:19;;;;;;;23.05;9.15;;;;;;;17.95;44.53;101469.66;4997736;28;98094;-68
2022/04/14 06:23:45;;;;;;;18.17;8.05;;;;;;;18.23;43.80;101471.69;4998420;28;96971;-69
2022/04/14 06:26:11;;;;;;;13.65;8.55;;;;;;;18.16;43.97;101481.00;4998781;28;99527;-68
2022/04/14 06:28:39;;;;;;;14.00;8.65;;;;;;;18.74;42.55;101477.75;5000136;28;99001;-69
2022/04/14 06:31:05;;;;;;;16.25;8.52;;;;;;;18.88;42.38;101481.34;4994055;28;98591;-70
2022/04/14 06:33:33;;;;;;;16.35;8.63;;;;;;;18.96;42.33;101483.56;5001358;28;97058;-70
2022/04/14 06:36:00;;;;;;;15.05;8.55;;;;;;;18.86;42.07;101488.59;4999289;28;99891;-70
2022/04/14 06:38:27;;;;;;;14.23;9.43;;;;;;;18.80;42.08;101488.09;4999038;28;98668;-70
2022/04/14 06:40:53;;;;;;;15.88;8.35;;;;;;;18.41;43.61;101484.03;4996028;28;98953;-69
2022/04/14 06:43:20;;;;;;;19.55;9.25;;;;;;;18.64;42.97;101482.78;4994436;28;98992;-69
2022/04/14 06:45:47;;;;;;;19.85;8.40;;;;;;;18.96;42.50;101486.25;4991949;28;99016;-69
2022/04/14 06:48:14;;;;;;;21.90;8.45;;;;;;;18.97;42.40;101480.78;4991925;28;98968;-69
2022/04/14 06:50:42;;;;;;;15.30;8.30;;;;;;;19.33;41.55;101485.78;4993161;28;97855;-68
2022/04/14 06:53:09;;;;;;;15.40;9.23;;;;;;;19.30;41.34;101488.63;5000187;28;97797;-70
2022/04/14 06:55:37;;;;;;;16.73;8.90;;;;;;;19.93;40.34;101482.16;4992771;28;99400;-69
2022/04/14 06:58:04;;;;;;;19.27;8.85;;;;;;;19.87;40.29;101486.06;4999344;28;98833;-68
2022/04/14 07:00:31;;;;;;;22.98;9.60;;;;;;;19.25;41.89;101476.47;4991850;28;96965;-69
2022/04/14 07:02:58;;;;;;;28.05;11.35;;;;;;;19.76;40.77;101477.81;4993095;28;97477;-70
2022/04/14 07:05:24;;;;;;;12.85;8.95;;;;;;;19.50;41.41;101482.97;4994552;28;98918;-68
2022/04/14 07:07:52;;;;;;;13.95;8.60;;;;;;;19.40;41.32;101481.78;4992523;28;99265;-70
2022/04/14 07:10:19;;;;;;;14.88;9.23;;;;;;;19.32;41.76;101485.88;4996495;28;97817;-70
2022/04/14 07:12:46;;;;;;;16.80;8.45;;;;;;;19.92;40.36;101486.63;4999318;28;97470;-70
2022/04/14 07:15:13;;;;;;;16.23;8.48;;;;;;;20.24;39.89;101490.81;4998853;28;99282;-70
2022/04/14 07:17:41;;;;;;;19.27;8.77;;;;;;;20.38;39.61;101483.75;4989981;28;98843;-69
2022/04/14 07:20:10;;;;;;;20.63;8.32;;;;;;;19.89;40.73;101490.38;4994775;28;97352;-70
2022/04/14 07:22:43;;;;;;;15.90;9.23;;;;;;;20.35;39.70;101486.63;5001718;28;97157;-69
2022/04/14 07:25:12;;;;;;;13.75;8.85;;;;;;;20.26;39.78;101482.69;4995523;28;98729;-70
2022/04/14 07:27:38;;;;;;;14.93;8.63;;;;;;;19.80;40.73;101487.41;4992679;28;100550;-69
2022/04/14 07:30:06;;;;;;;15.60;8.35;;;;;;;19.08;42.31;101485.53;4997736;28;96984;-69
2022/04/14 07:32:36;;;;;;;20.05;7.95;;;;;;;19.46;42.06;101483.25;5003562;28;98273;-70
2022/04/14 07:35:04;;;;;;;14.45;8.63;;;;;;;20.05;40.33;101489.41;4998038;28;100301;-69
2022/04/14 07:37:31;;;;;;;15.52;8.05;;;;;;;20.42;40.06;101485.25;4997702;28;99303;-70
2022/04/14 07:39:57;;;;;;;14.63;7.90;;;;;;;20.72;39.16;101493.16;4994816;28;98848;-70
2022/04/14 07:42:32;;;;;;;14.13;8.02;;;;;;;20.90;39.10;101486.53;4995867;28;98730;-70
2022/04/14 07:44:59;;;;;;;11.20;7.45;;;;;;;21.49;37.57;101490.56;4992121;28;98968;-68
2022/04/14 07:47:25;;;;;;;10.75;7.90;;;;;;;21.34;37.96;101491.63;4996832;28;98954;-69
2022/04/14 07:49:52;;;;;;;11.27;7.05;;;;;;;20.40;39.99;101492.56;4994233;28;97421;-69
2022/04/14 07:52:18;;;;;;;13.90;6.72;;;;;;;21.23;38.59;101494.19;4999459;28;97363;-70
2022/04/14 07:54:45;;;;;;;15.07;9.70;;;;;;;21.09;38.90;101495.09;4999117;28;98322;-70
2022/04/14 07:57:12;;;;;;;10.52;7.03;;;;;;;21.07;38.91;101499.69;4995185;28;99447;-70
2022/04/14 07:59:40;;;;;;;12.38;6.68;;;;;;;21.07;39.04;101497.88;4994153;28;97733;-70
2022/04/14 08:02:06;;;;;;;13.30;6.78;;;;;;;20.92;39.64;101504.28;4989745;28;99592;-69
2022/04/14 08:04:33;;;;;;;12.43;6.40;;;;;;;21.17;38.98;101491.91;4998491;28;98907;-69
2022/04/14 08:06:59;;;;;;;13.35;5.82;;;;;;;21.03;39.85;101495.50;4992901;28;100584;-71
2022/04/14 08:09:26;;;;;;;16.15;8.20;;;;;;;20.87;40.11;101505.56;4989231;28;98365;-69
2022/04/14 08:11:52;;;;;;;13.15;7.35;;;;;;;20.80;40.60;101499.75;4999042;28;98691;-70
2022/04/14 08:14:18;;;;;;;12.60;5.65;;;;;;;20.88;40.54;101505.44;4992303;28;99162;-69
2022/04/14 08:16:47;;;;;;;8.60;5.10;;;;;;;21.27;39.75;101510.00;4998395;28;98362;-69
2022/04/14 08:19:13;;;;;;;12.00;5.10;;;;;;;21.42;39.80;101510.78;4995485;28;97257;-69
2022/04/14 08:21:39;;;;;;;10.07;4.10;;;;;;;20.56;41.82;101512.94;4990543;28;98015;-69
2022/04/14 08:24:07;;;;;;;10.60;5.80;;;;;;;20.80;41.08;101513.16;4994921;28;100732;-68
2022/04/14 08:26:33;;;;;;;14.70;8.23;;;;;;;20.52;41.79;101518.63;4998244;28;101806;-70
2022/04/14 08:29:00;;;;;;;7.82;5.25;;;;;;;20.38;42.52;101521.31;4991032;28;98398;-69
2022/04/14 08:31:27;;;;;;;7.35;4.20;;;;;;;20.81;41.73;101530.97;4994243;28;96973;-69
2022/04/14 08:33:55;;;;;;;7.53;4.47;;;;;;;21.10;41.23;101534.44;5000418;28;98868;-70
2022/04/14 08:36:22;;;;;;;14.20;5.18;;;;;;;20.54;41.80;101527.44;5001548;28;98789;-68
2022/04/14 08:38:50;;;;;;;6.53;3.13;;;;;;;20.55;42.37;101531.81;4999082;28;99154;-69
2022/04/14 08:41:21;;;;;;;6.18;3.20;;;;;;;20.50;42.36;101544.69;4996774;28;97755;-70
2022/04/14 08:43:52;;;;;;;6.47;4.18;;;;;;;20.71;42.30;101534.38;4996725;28;101515;-68
2022/04/14 08:46:23;;;;;;;11.32;4.07;;;;;;;21.42;40.68;101540.34;4996029;28;98774;-70
2022/04/14 08:48:55;;;;;;;7.57;3.58;;;;;;;21.75;39.79;101546.09;4998529;28;97053;-69
2022/04/14 08:51:23;;;;;;;9.20;3.80;;;;;;;21.83;39.41;101535.66;4999145;28;98588;-69
2022/04/14 08:53:50;;;;;;;8.38;4.28;;;;;;;21.98;39.28;101549.06;5000761;28;97887;-69
2022/04/14 08:56:17;;;;;;;9.10;3.63;;;;;;;22.21;38.42;101542.88;4999301;28;99346;-68
2022/04/14 08:58:44;;;;;;;10.65;5.60;;;;;;;22.21;38.61;101551.81;4994396;28;99008;-70
2022/04/14 09:01:13;;;;;;;8.55;4.60;;;;;;;22.00;38.79;101547.97;4990585;28;97131;-70
2022/04/14 09:03:41;;;;;;;6.75;4.25;;;;;;;21.77;39.54;101554.94;4999270;28;98911;-70
2022/04/14 09:06:08;;;;;;;5.95;3.20;;;;;;;21.81;39.39;101553.75;5000052;28;99178;-69
2022/04/14 09:08:36;;;;;;;5.80;3.28;;;;;;;21.83;39.74;101556.34;5001240;28;96811;-71
2022/04/14 09:11:03;;;;;;;14.45;8.13;;;;;;;22.50;38.24;101552.44;4992245;28;96865;-70
2022/04/14 09:13:29;;;;;;;9.73;5.80;;;;;;;22.56;38.32;101551.13;4996711;28;98902;-70
2022/04/14 09:15:56;;;;;;;10.80;4.05;;;;;;;22.92;37.49;101547.56;4997758;28;99316;-69
2022/04/14 09:18:22;;;;;;;7.53;5.07;;;;;;;22.96;37.54;101549.06;4994539;28;97492;-70
2022/04/14 09:20:50;;;;;;;8.48;4.82;;;;;;;22.87;37.39;101552.44;4997849;28;97828;-70
2022/04/14 09:23:20;;;;;;;8.93;4.97;;;;;;;22.86;37.63;101550.72;4996587;28;101789;-70
2022/04/14 09:25:50;;;;;;;9.05;5.43;;;;;;;22.04;38.95;101549.47;4997717;28;98697;-70
2022/04/14 09:28:18;;;;;;;22.63;11.70;;;;;;;22.73;38.08;101560.69;4995987;28;96954;-70
2022/04/14 09:31:02;;;;;;;10.20;4.55;;;;;;;22.64;38.41;101556.81;4998948;28;96855;-69
2022/04/14 09:33:29;;;;;;;6.47;3.58;;;;;;;22.61;38.66;101555.19;5002907;28;98365;-69
2022/04/14 09:36:10;;;;;;;2.58;1.50;;;;;;;22.34;39.00;101550.94;4997642;28;101776;-69
2022/04/14 09:38:50;;;;;;;4.88;1.40;;;;;;;21.68;40.76;101558.25;4995102;28;97434;-68
2022/04/14 09:41:37;;;;;;;5.15;1.25;;;;;;;22.54;39.15;101547.66;4998580;28;97384;-69
2022/04/14 09:44:06;;;;;;;4.22;1.73;;;;;;;22.22;39.78;101552.69;4999368;28;100630;-68
2022/04/14 09:46:33;;;;;;;4.63;2.13;;;;;;;20.89;42.73;101558.22;4993388;28;98613;-69
2022/04/14 09:49:08;;;;;;;3.30;2.13;;;;;;;21.23;42.19;101556.00;5004289;28;97908;-70
2022/04/14 09:51:36;;;;;;;4.55;2.85;;;;;;;20.39;44.24;101557.94;4999919;28;97311;-69
2022/04/14 09:54:07;;;;;;;3.10;1.77;;;;;;;19.90;45.79;101547.56;5000083;28;99205;-70
2022/04/14 09:56:43;;;;;;;7.43;2.20;;;;;;;20.29;44.92;101555.78;4993468;28;98804;-70
2022/04/14 09:59:12;;;;;;;3.58;2.40;;;;;;;21.04;43.19;101557.22;4998502;28;99705;-69
2022/04/14 10:01:39;;;;;;;7.97;2.33;;;;;;;21.74;41.58;101555.13;4998968;28;97217;-69
2022/04/14 10:04:06;;;;;;;5.47;2.75;;;;;;;21.40;42.18;101548.50;4996242;28;98925;-70
2022/04/14 10:06:33;;;;;;;14.10;2.65;;;;;;;20.98;43.00;101557.63;4992216;28;98904;-71
2022/04/14 10:09:02;;;;;;;4.35;2.25;;;;;;;20.59;44.54;101544.09;4999311;28;97347;-70
2022/04/14 10:11:30;;;;;;;5.32;2.55;;;;;;;20.49;44.42;101556.38;5002584;28;96974;-69
2022/04/14 10:14:14;;;;;;;8.23;2.90;;;;;;;20.17;45.61;101555.72;5011863;28;97226;-69
2022/04/14 10:16:44;;;;;;;9.73;2.95;;;;;;;21.10;43.47;101561.31;4997384;28;97494;-69
2022/04/14 10:19:10;;;;;;;4.95;2.85;;;;;;;20.80;44.10;101564.22;4998741;28;97535;-71
2022/04/14 10:21:38;;;;;;;4.60;3.00;;;;;;;21.25;43.35;101565.69;5005997;28;96797;-68
2022/04/14 10:24:06;;;;;;;6.82;3.05;;;;;;;21.79;42.12;101565.59;5002872;28;98957;-70
2022/04/14 10:26:35;;;;;;;4.40;2.72;;;;;;;22.38;40.79;101563.22;4996419;28;99877;-70
2022/04/14 10:29:03;;;;;;;8.75;3.30;;;;;;;21.62;42.34;101568.56;4994847;28;97082;-70
2022/04/14 10:31:31;;;;;;;6.97;3.40;;;;;;;21.54;42.95;101563.72;4999562;28;97529;-68
2022/04/14 10:34:03;;;;;;;3.47;2.47;;;;;;;22.37;41.28;101558.81;4998102;28;99759;-69
2022/04/14 10:36:30;;;;;;;5.20;2.20;;;;;;;21.99;42.07;101561.53;4996276;28;98943;-69
2022/04/14 10:38:58;;;;;;;5.53;2.33;;;;;;;22.39;40.96;101549.63;4990621;28;97271;-68
2022/04/14 10:41:28;;;;;;;5.10;1.95;;;;;;;21.06;43.93;101566.03;4993902;28;97800;-69
2022/04/14 10:44:00;;;;;;;6.47;2.00;;;;;;;22.05;41.83;101551.22;4997300;28;98327;-68
2022/04/14 10:46:33;;;;;;;4.28;1.85;;;;;;;21.81;42.36;101553.75;4994006;28;98236;-70
2022/04/14 10:49:14;;;;;;;4.40;1.90;;;;;;;21.63;42.97;101562.22;4996503;28;98814;-69
2022/04/14 10:51:43;;;;;;;5.45;2.17;;;;;;;21.92;42.26;101563.78;4993264;28;99068;-69
2022/04/14 10:54:11;;;;;;;3.42;1.70;;;;;;;21.62;42.87;101560.50;4996477;28;98727;-69
2022/04/14 10:56:43;;;;;;;2.30;1.65;;;;;;;20.43;45.54;101573.75;4993117;28;97799;-72
2022/04/14 10:59:11;;;;;;;2.83;1.45;;;;;;;20.92;44.93;101565.22;4994608;28;97748;-70
2022/04/14 11:01:57;;;;;;;2.88;1.23;;;;;;;21.70;42.79;101575.16;4995965;28;99356;-67
2022/04/14 11:04:26;;;;;;;3.20;1.60;;;;;;;21.82;42.34;101570.75;4987986;28;99208;-69
2022/04/14 11:06:54;;;;;;;4.40;1.90;;;;;;;21.62;43.22;101579.31;4994535;28;99539;-69
2022/04/14 11:09:47;;;;;;;3.20;1.85;;;;;;;21.49;43.42;101573.94;4997060;28;97147;-69
2022/04/14 11:12:16;;;;;;;2.88;1.80;;;;;;;21.21;44.00;101584.81;4992225;28;97257;-68
2022/04/14 11:14:56;;;;;;;2.90;1.67;;;;;;;20.69;44.78;101585.50;5000033;28;98900;-69
2022/04/14 11:17:53;;;;;;;4.32;2.00;;;;;;;21.29;43.90;101596.78;4991421;28;100944;-70
2022/04/14 11:20:20;;;;;;;;;;;;;;;20.94;44.85;101598.19;4997296;28;98655;-69